Aviation Digital Data Service (ADDS)

Output produced by METARs form (1905 UTC 17 August 2018)
found at http://aviationweather.gov/adds/metars/
 
METAR text: EDTY 171750Z 09009KT 9999 VCTS NSC 25/12 Q1016
Conditions at: EDTY (SCHWAEBISCH HALL, DE) observed 1750 UTC 17 August 2018
Temperature: 25.0°C (77°F)
Dewpoint: 12.0°C (54°F) [RH = 44%]
Pressure (altimeter): 30.00 inches Hg (1016.0 mb)
Winds: from the E (90 degrees) at 10 MPH (9 knots; 4.7 m/s)
Visibility: 6 or more miles (10+ km)
Ceiling: at least 12,000 feet AGL
Clouds: sky clear below 12,000 feet AGL
Weather: VCTS  (thunderstorm in vicinity)

Forecast for: EDTY (SCHWAEBISCH HALL, DE)
Text: TAF EDTY 171700Z 1718/1803 29008KT 9999 SCT040
Forecast period: 1800 UTC 17 August 2018 to 0300 UTC 18 August 2018
Forecast type: FROM: standard forecast or significant change
Winds: from the WNW (290 degrees) at 9 MPH (8 knots; 4.2 m/s)
Visibility: 6 or more miles (10+ km)
Clouds: scattered clouds at 4000 feet AGL
Weather: no significant weather forecast for this period
Text: TEMPO 1718/1722 32020G35KT TSRA BKN040CB
Forecast period: 1800 to 2200 UTC 17 August 2018
Forecast type: TEMPORARY: The following changes expected for less than half the time period
Winds: from the NW (320 degrees) at 23 MPH (20 knots; 10.4 m/s)
gusting to 40 MPH (35 knots; 18.2 m/s)
Ceiling: 4000 feet AGL
Clouds: broken clouds at 4000 feet AGL
Weather: TSRA  (rain associated with thunderstorm(s))